Time;durP1;ratioP1;P1;durP2;ratioP2;P2;SDS_P1;SDS_P2;PMS_P1;PMS_P2;Temp;Humidity;BMP_temperature;BMP_pressure;BME280_temperature;BME280_humidity;BME280_pressure;Samples;Min_cycle;Max_cycle;Signal;HPM_P1;HPM_P2
2023/06/08 10:51:43;;;;;;;54.80;7.88;;;;;;;;;;5008981;28;20417;-53
2023/06/08 10:54:09;;;;;;;63.40;9.52;;;;;;;;;;4997490;28;20153;-53
2023/06/08 10:56:44;;;;;;;35.72;6.72;;;;;;;;;;5012214;28;20448;-56
2023/06/08 10:59:09;;;;;;;59.03;9.18;;;;;;;;;;5019446;28;20064;-56
2023/06/08 11:01:35;;;;;;;42.33;7.00;;;;;;;;;;5018057;28;20121;-56
2023/06/08 11:04:02;;;;;;;29.25;6.00;;;;;;;;;;5017324;28;20261;-57
2023/06/08 11:06:29;;;;;;;30.20;6.20;;;;;;;;;;5018341;28;20848;-56
2023/06/08 11:08:55;;;;;;;26.85;5.35;;;;;;;;;;5015703;28;20033;-57
2023/06/08 11:11:20;;;;;;;30.42;5.75;;;;;;;;;;5017290;28;20060;-60
2023/06/08 11:13:45;;;;;;;44.63;7.40;;;;;;;;;;5018436;28;20084;-58
2023/06/08 11:16:10;;;;;;;52.10;8.17;;;;;;;;;;5019246;28;20033;-58
2023/06/08 11:18:36;;;;;;;37.73;6.60;;;;;;;;;;5021870;28;20789;-57
2023/06/08 11:21:02;;;;;;;33.72;6.18;;;;;;;;;;5016345;28;20272;-55
2023/06/08 11:23:37;;;;;;;41.08;6.40;;;;;;;;;;5017811;28;20021;-57
2023/06/08 11:26:02;;;;;;;66.60;8.65;;;;;;;;;;5017267;28;20033;-54
2023/06/08 11:28:28;;;;;;;54.78;7.57;;;;;;;;;;5019573;28;20009;-57
2023/06/08 11:30:53;;;;;;;63.05;8.48;;;;;;;;;;5017617;28;20053;-56
2023/06/08 11:33:19;;;;;;;85.60;10.93;;;;;;;;;;5015705;28;20037;-56
2023/06/08 11:35:48;;;;;;;62.22;8.25;;;;;;;;;;5018758;28;20029;-56
2023/06/08 11:38:14;;;;;;;85.57;9.98;;;;;;;;;;5017046;28;20869;-57
2023/06/08 11:40:41;;;;;;;59.08;7.95;;;;;;;;;;5016386;28;20037;-54
2023/06/08 11:43:08;;;;;;;96.07;11.25;;;;;;;;;;5014273;28;20025;-57
2023/06/08 11:45:34;;;;;;;40.10;6.57;;;;;;;;;;5016313;28;20095;-55
2023/06/08 11:48:02;;;;;;;58.28;7.93;;;;;;;;;;5019110;28;20025;-55
2023/06/08 11:50:27;;;;;;;71.57;8.98;;;;;;;;;;5017899;28;21345;-56
2023/06/08 11:52:52;;;;;;;40.40;6.23;;;;;;;;;;5015786;28;20029;-57
2023/06/08 11:55:19;;;;;;;75.80;9.70;;;;;;;;;;5016737;28;20326;-58
2023/06/08 11:57:51;;;;;;;38.97;6.55;;;;;;;;;;5016471;28;20256;-56
2023/06/08 12:00:21;;;;;;;106.22;12.32;;;;;;;;;;5017111;28;20379;-56
2023/06/08 12:02:47;;;;;;;58.22;8.05;;;;;;;;;;5007051;28;20013;-59
2023/06/08 12:05:40;;;;;;;100.75;12.50;;;;;;;;;;5002328;28;20054;-56
2023/06/08 12:08:14;;;;;;;83.75;9.98;;;;;;;;;;5003618;28;20775;-57
2023/06/08 12:10:43;;;;;;;55.53;7.78;;;;;;;;;;5003518;28;20757;-55
2023/06/08 12:13:13;;;;;;;76.30;9.63;;;;;;;;;;5001980;28;20113;-56
2023/06/08 12:15:41;;;;;;;46.80;6.90;;;;;;;;;;5003979;28;20154;-56
2023/06/08 12:18:09;;;;;;;70.30;9.13;;;;;;;;;;5005603;28;20801;-57
2023/06/08 12:20:34;;;;;;;69.47;8.45;;;;;;;;;;5003522;28;20053;-57
2023/06/08 12:23:00;;;;;;;70.22;8.70;;;;;;;;;;5005403;28;20032;-55
2023/06/08 12:25:25;;;;;;;69.63;8.88;;;;;;;;;;5001542;28;20124;-58
2023/06/08 12:27:50;;;;;;;66.97;8.50;;;;;;;;;;5004739;28;20029;-58
2023/06/08 12:30:16;;;;;;;105.83;11.83;;;;;;;;;;5004150;28;20807;-56
2023/06/08 12:32:42;;;;;;;60.08;7.95;;;;;;;;;;5004859;28;20678;-56
2023/06/08 12:35:08;;;;;;;91.43;10.75;;;;;;;;;;5003001;28;20416;-56
2023/06/08 12:37:33;;;;;;;67.22;8.48;;;;;;;;;;5003824;28;20940;-55
2023/06/08 12:39:58;;;;;;;64.07;8.00;;;;;;;;;;5007256;28;20022;-55
2023/06/08 12:42:24;;;;;;;78.47;9.03;;;;;;;;;;5001262;28;20053;-56
2023/06/08 12:44:49;;;;;;;57.78;8.02;;;;;;;;;;5007010;28;20695;-57
2023/06/08 12:47:14;;;;;;;101.38;10.70;;;;;;;;;;5002889;28;20121;-57
2023/06/08 12:49:41;;;;;;;56.20;7.43;;;;;;;;;;5003406;28;20919;-59
2023/06/08 12:52:07;;;;;;;74.55;9.73;;;;;;;;;;5003266;28;20385;-58
2023/06/08 12:54:32;;;;;;;82.00;9.55;;;;;;;;;;5003575;28;20758;-59
2023/06/08 12:56:58;;;;;;;60.90;7.65;;;;;;;;;;5003224;28;20041;-56
2023/06/08 12:59:23;;;;;;;97.80;11.00;;;;;;;;;;5004487;28;20050;-58
2023/06/08 13:01:48;;;;;;;106.25;11.05;;;;;;;;;;5002685;28;20344;-56
2023/06/08 13:04:14;;;;;;;88.10;10.87;;;;;;;;;;5005412;28;20053;-56
2023/06/08 13:06:39;;;;;;;51.40;7.20;;;;;;;;;;5004075;28;20121;-57
2023/06/08 13:09:05;;;;;;;43.80;6.40;;;;;;;;;;5004084;28;20026;-56
2023/06/08 13:11:30;;;;;;;47.67;6.78;;;;;;;;;;5003688;28;20148;-58
2023/06/08 13:13:55;;;;;;;200.90;13.30;;;;;;;;;;5001832;28;20052;-56
2023/06/08 13:16:21;;;;;;;90.83;10.10;;;;;;;;;;5004964;28;20041;-57
2023/06/08 13:18:46;;;;;;;48.95;6.60;;;;;;;;;;5003700;28;20083;-57
2023/06/08 13:21:11;;;;;;;98.07;10.87;;;;;;;;;;5003466;28;20583;-58
2023/06/08 13:23:37;;;;;;;45.97;6.80;;;;;;;;;;5003822;28;20326;-58
2023/06/08 13:26:02;;;;;;;52.00;7.15;;;;;;;;;;5003584;28;20281;-57
2023/06/08 13:28:28;;;;;;;52.50;7.20;;;;;;;;;;5002649;28;20037;-56
2023/06/08 13:30:53;;;;;;;60.17;7.22;;;;;;;;;;5002733;28;20323;-57
2023/06/08 13:33:18;;;;;;;103.80;11.07;;;;;;;;;;5000841;28;20022;-57
2023/06/08 13:35:44;;;;;;;57.73;7.50;;;;;;;;;;5004340;28;20036;-58
2023/06/08 13:38:11;;;;;;;58.20;7.60;;;;;;;;;;5002847;28;20045;-57
2023/06/08 13:40:36;;;;;;;62.25;7.68;;;;;;;;;;5002973;28;20045;-56
2023/06/08 13:43:02;;;;;;;52.85;7.30;;;;;;;;;;5002613;28;20044;-55
2023/06/08 13:45:28;;;;;;;70.75;8.90;;;;;;;;;;5003346;28;20030;-58
2023/06/08 13:47:54;;;;;;;74.00;8.85;;;;;;;;;;5005289;28;20032;-57
2023/06/08 13:50:20;;;;;;;111.82;11.95;;;;;;;;;;5003318;28;20029;-57
2023/06/08 13:52:45;;;;;;;87.75;9.93;;;;;;;;;;5002277;28;20108;-58
2023/06/08 13:55:10;;;;;;;73.80;9.13;;;;;;;;;;5002980;28;20463;-56
2023/06/08 13:57:35;;;;;;;70.77;9.40;;;;;;;;;;5004430;28;20215;-55
2023/06/08 14:00:01;;;;;;;84.17;10.43;;;;;;;;;;5002382;28;20330;-56
2023/06/08 14:02:26;;;;;;;133.05;14.00;;;;;;;;;;5000040;28;20806;-56
2023/06/08 14:04:52;;;;;;;84.50;10.13;;;;;;;;;;5001962;28;20116;-56
2023/06/08 14:07:17;;;;;;;118.47;13.15;;;;;;;;;;5001048;28;20320;-57
2023/06/08 14:09:43;;;;;;;73.88;10.05;;;;;;;;;;5002260;28;20132;-54
2023/06/08 14:12:09;;;;;;;112.35;12.35;;;;;;;;;;4999989;28;20036;-58
2023/06/08 14:14:34;;;;;;;68.70;9.52;;;;;;;;;;5001824;28;20059;-57
2023/06/08 14:16:59;;;;;;;82.50;10.53;;;;;;;;;;5002845;28;20590;-57
2023/06/08 14:19:25;;;;;;;134.90;14.33;;;;;;;;;;5000533;28;20311;-55
2023/06/08 14:21:50;;;;;;;136.75;13.18;;;;;;;;;;5001561;28;20629;-56
2023/06/08 14:24:15;;;;;;;132.30;13.57;;;;;;;;;;5001349;28;20037;-56
2023/06/08 14:26:41;;;;;;;69.97;9.50;;;;;;;;;;5002731;28;20278;-55
2023/06/08 14:29:08;;;;;;;76.93;9.88;;;;;;;;;;5002739;28;20824;-56
2023/06/08 14:31:33;;;;;;;83.85;10.93;;;;;;;;;;5000551;28;20404;-57
2023/06/08 14:33:59;;;;;;;76.20;9.70;;;;;;;;;;5001420;28;20752;-57
2023/06/08 14:36:24;;;;;;;129.60;13.33;;;;;;;;;;4999399;28;20335;-57
2023/06/08 14:38:51;;;;;;;71.10;9.55;;;;;;;;;;5004010;28;20292;-56
2023/06/08 14:41:16;;;;;;;102.85;11.93;;;;;;;;;;5001546;28;20045;-58
2023/06/08 14:43:42;;;;;;;74.68;9.98;;;;;;;;;;5000909;28;20021;-57
2023/06/08 14:46:10;;;;;;;54.80;8.73;;;;;;;;;;5002939;28;20042;-57
2023/06/08 14:48:36;;;;;;;55.78;9.02;;;;;;;;;;4998450;28;20033;-55
2023/06/08 14:51:01;;;;;;;53.00;9.03;;;;;;;;;;5003117;28;20510;-54
2023/06/08 14:53:26;;;;;;;102.10;12.93;;;;;;;;;;4998742;28;20262;-54
2023/06/08 14:55:51;;;;;;;77.97;11.00;;;;;;;;;;5002454;28;20044;-57
2023/06/08 14:58:17;;;;;;;80.97;11.87;;;;;;;;;;5000918;28;20018;-56
2023/06/08 15:00:42;;;;;;;53.42;9.38;;;;;;;;;;5003214;28;20284;-56
2023/06/08 15:03:07;;;;;;;66.78;10.65;;;;;;;;;;4999936;28;20621;-56
2023/06/08 15:05:33;;;;;;;67.10;10.50;;;;;;;;;;4999136;28;20038;-56
2023/06/08 15:07:58;;;;;;;90.13;12.10;;;;;;;;;;5001568;28;20820;-56
2023/06/08 15:10:23;;;;;;;119.20;15.52;;;;;;;;;;5001369;28;20080;-56
2023/06/08 15:12:48;;;;;;;87.45;13.10;;;;;;;;;;5000740;28;20013;-58
2023/06/08 15:15:14;;;;;;;70.20;12.00;;;;;;;;;;5001216;28;20695;-56
2023/06/08 15:17:39;;;;;;;68.15;12.50;;;;;;;;;;5003308;28;20079;-57
2023/06/08 15:20:06;;;;;;;68.93;11.53;;;;;;;;;;5003050;28;20069;-58
2023/06/08 15:22:32;;;;;;;132.77;15.55;;;;;;;;;;5000096;28;20281;-55
2023/06/08 15:24:57;;;;;;;77.85;11.90;;;;;;;;;;5003586;28;20096;-57
2023/06/08 15:27:22;;;;;;;131.23;15.90;;;;;;;;;;5000685;28;20030;-58
2023/06/08 15:29:47;;;;;;;86.00;11.75;;;;;;;;;;5004494;28;21114;-58
2023/06/08 15:32:13;;;;;;;86.45;12.27;;;;;;;;;;5002104;28;20029;-55
2023/06/08 15:34:38;;;;;;;75.73;12.03;;;;;;;;;;5002097;28;20022;-55
2023/06/08 15:37:03;;;;;;;74.05;12.27;;;;;;;;;;5004476;28;20615;-58
2023/06/08 15:39:29;;;;;;;121.30;15.38;;;;;;;;;;5004242;28;20030;-56
2023/06/08 15:41:54;;;;;;;153.77;16.80;;;;;;;;;;5004037;28;20137;-57
2023/06/08 15:44:19;;;;;;;110.53;15.13;;;;;;;;;;5005938;28;20017;-56
2023/06/08 15:46:45;;;;;;;84.13;13.30;;;;;;;;;;5004822;28;20284;-57
2023/06/08 15:49:10;;;;;;;68.07;13.00;;;;;;;;;;5004331;28;20134;-55
2023/06/08 15:51:42;;;;;;;81.55;13.57;;;;;;;;;;5004013;28;20327;-55
2023/06/08 15:54:07;;;;;;;93.32;13.65;;;;;;;;;;5004188;28;20018;-54
2023/06/08 15:56:32;;;;;;;110.72;16.00;;;;;;;;;;5004860;28;20048;-55
2023/06/08 15:58:57;;;;;;;72.33;13.27;;;;;;;;;;5005648;28;20824;-61
2023/06/08 16:01:23;;;;;;;108.53;15.82;;;;;;;;;;5004646;28;20426;-55
2023/06/08 16:03:48;;;;;;;81.00;13.02;;;;;;;;;;5006831;28;20046;-55
2023/06/08 16:06:15;;;;;;;69.43;12.63;;;;;;;;;;5007225;28;20787;-59
2023/06/08 16:08:40;;;;;;;59.78;11.18;;;;;;;;;;5003869;28;20293;-57
2023/06/08 16:11:05;;;;;;;58.92;11.85;;;;;;;;;;5006011;28;20049;-56
2023/06/08 16:13:30;;;;;;;115.18;14.75;;;;;;;;;;5006390;28;20029;-56
2023/06/08 16:15:56;;;;;;;68.97;11.65;;;;;;;;;;5006649;28;20046;-57
2023/06/08 16:18:21;;;;;;;89.20;13.18;;;;;;;;;;5006705;28;20107;-57
2023/06/08 16:20:47;;;;;;;59.95;10.75;;;;;;;;;;5006504;28;20134;-55
2023/06/08 16:23:12;;;;;;;54.08;10.13;;;;;;;;;;5006538;28;20033;-57
2023/06/08 16:25:37;;;;;;;63.55;10.75;;;;;;;;;;5004056;28;20130;-56
2023/06/08 16:28:05;;;;;;;69.10;10.80;;;;;;;;;;5005689;28;20024;-58
2023/06/08 16:30:30;;;;;;;93.00;12.05;;;;;;;;;;5003912;28;20567;-56
2023/06/08 16:32:56;;;;;;;74.60;11.10;;;;;;;;;;5002622;28;20040;-57
2023/06/08 16:35:21;;;;;;;73.60;11.20;;;;;;;;;;5003888;28;20032;-55
2023/06/08 16:37:46;;;;;;;67.05;10.52;;;;;;;;;;5004102;28;20272;-56
2023/06/08 16:40:11;;;;;;;60.00;9.87;;;;;;;;;;5004337;28;20032;-55
2023/06/08 16:42:38;;;;;;;104.60;13.38;;;;;;;;;;5003422;28;20269;-57
2023/06/08 16:45:04;;;;;;;75.55;11.43;;;;;;;;;;5004025;28;20018;-58
2023/06/08 16:47:29;;;;;;;115.30;14.38;;;;;;;;;;5004570;28;20016;-57
2023/06/08 16:49:54;;;;;;;82.63;11.80;;;;;;;;;;5004447;28;20049;-57
2023/06/08 16:52:20;;;;;;;75.93;11.53;;;;;;;;;;5002012;28;20049;-55
2023/06/08 16:54:45;;;;;;;62.72;9.98;;;;;;;;;;5005117;28;20291;-55
2023/06/08 16:57:11;;;;;;;96.93;12.57;;;;;;;;;;5004703;28;20104;-57
2023/06/08 16:59:36;;;;;;;123.90;14.88;;;;;;;;;;5003195;28;20605;-57
2023/06/08 17:02:02;;;;;;;110.72;13.15;;;;;;;;;;5003753;28;20753;-55
2023/06/08 17:04:27;;;;;;;136.35;15.40;;;;;;;;;;5002734;28;20105;-55
2023/06/08 17:06:53;;;;;;;70.78;11.27;;;;;;;;;;5004572;28;20112;-55
2023/06/08 17:09:18;;;;;;;88.63;12.23;;;;;;;;;;5003798;28;20120;-56
2023/06/08 17:11:43;;;;;;;83.57;11.37;;;;;;;;;;5002367;28;20042;-58
2023/06/08 17:14:08;;;;;;;68.00;10.23;;;;;;;;;;5003714;28;20277;-56
2023/06/08 17:16:34;;;;;;;141.43;15.63;;;;;;;;;;5002110;28;20057;-55
2023/06/08 17:18:59;;;;;;;78.35;11.07;;;;;;;;;;5003790;28;20018;-57
2023/06/08 17:21:25;;;;;;;122.90;13.60;;;;;;;;;;5000484;28;20071;-54
2023/06/08 17:23:52;;;;;;;87.83;10.93;;;;;;;;;;5004685;28;20024;-54
2023/06/08 17:26:17;;;;;;;80.65;11.00;;;;;;;;;;5004122;28;20278;-56
2023/06/08 17:28:42;;;;;;;75.55;10.18;;;;;;;;;;5002841;28;20020;-57
2023/06/08 17:31:08;;;;;;;80.20;11.00;;;;;;;;;;5003333;28;21540;-56
2023/06/08 17:33:33;;;;;;;130.00;14.70;;;;;;;;;;5001178;28;20283;-56
2023/06/08 17:35:58;;;;;;;93.37;12.17;;;;;;;;;;5005267;28;20128;-57
2023/06/08 17:38:24;;;;;;;79.05;10.52;;;;;;;;;;5002092;28;20086;-55
2023/06/08 17:40:50;;;;;;;84.72;10.77;;;;;;;;;;5002716;28;20026;-57
2023/06/08 17:43:15;;;;;;;80.55;10.90;;;;;;;;;;5005681;28;20830;-55
2023/06/08 17:45:40;;;;;;;97.10;12.02;;;;;;;;;;5002823;28;20103;-58
2023/06/08 17:48:05;;;;;;;91.07;11.13;;;;;;;;;;5003888;28;20022;-57
2023/06/08 17:50:31;;;;;;;76.85;10.38;;;;;;;;;;5004272;28;20078;-57
2023/06/08 17:53:00;;;;;;;60.53;9.30;;;;;;;;;;5003311;28;20017;-56
2023/06/08 17:55:26;;;;;;;69.38;9.77;;;;;;;;;;5003907;28;20296;-56
2023/06/08 17:57:52;;;;;;;62.85;9.50;;;;;;;;;;5003424;28;20056;-58
2023/06/08 18:00:17;;;;;;;63.65;9.57;;;;;;;;;;5002748;28;20545;-55
2023/06/08 18:02:43;;;;;;;105.32;12.43;;;;;;;;;;5002218;28;20022;-55
2023/06/08 18:05:08;;;;;;;51.45;8.40;;;;;;;;;;5005540;28;20029;-56
2023/06/08 18:07:33;;;;;;;125.25;13.07;;;;;;;;;;5001508;28;20010;-55
2023/06/08 18:09:59;;;;;;;54.30;8.67;;;;;;;;;;5001338;28;20030;-58
2023/06/08 18:12:24;;;;;;;61.50;8.82;;;;;;;;;;5001395;28;20277;-56
2023/06/08 18:14:49;;;;;;;58.25;8.65;;;;;;;;;;5003908;28;20100;-59
2023/06/08 18:17:14;;;;;;;52.28;8.45;;;;;;;;;;5003379;28;20033;-55
2023/06/08 18:19:40;;;;;;;105.28;12.48;;;;;;;;;;5002593;28;20637;-56
2023/06/08 18:22:05;;;;;;;64.97;9.83;;;;;;;;;;5001437;28;20055;-57
2023/06/08 18:24:30;;;;;;;89.88;11.02;;;;;;;;;;5002955;28;20454;-55
2023/06/08 18:26:56;;;;;;;70.65;9.70;;;;;;;;;;5002517;28;20034;-55
2023/06/08 18:29:21;;;;;;;60.60;9.23;;;;;;;;;;5002716;28;20029;-54
2023/06/08 18:31:46;;;;;;;112.20;12.55;;;;;;;;;;4999725;28;20089;-55
2023/06/08 18:34:15;;;;;;;83.38;10.68;;;;;;;;;;5002911;28;20033;-57
2023/06/08 18:36:41;;;;;;;118.40;11.95;;;;;;;;;;5002336;28;20041;-53
2023/06/08 18:39:06;;;;;;;84.72;10.07;;;;;;;;;;5003569;28;20071;-57
2023/06/08 18:41:31;;;;;;;110.05;11.25;;;;;;;;;;5000764;28;20129;-55
2023/06/08 18:43:57;;;;;;;78.47;8.90;;;;;;;;;;5002142;28;20021;-55
2023/06/08 18:46:23;;;;;;;90.97;9.63;;;;;;;;;;5001318;28;20929;-55
2023/06/08 18:48:48;;;;;;;73.15;8.10;;;;;;;;;;5001832;28;20022;-58
2023/06/08 18:51:14;;;;;;;67.27;7.70;;;;;;;;;;5002968;28;20069;-55
2023/06/08 18:53:39;;;;;;;123.28;11.45;;;;;;;;;;5000258;28;20113;-57
2023/06/08 18:56:05;;;;;;;77.80;8.05;;;;;;;;;;5002559;28;20042;-56
2023/06/08 18:58:30;;;;;;;96.13;9.37;;;;;;;;;;5001925;28;20022;-55
2023/06/08 19:00:55;;;;;;;85.77;8.57;;;;;;;;;;5001186;28;21093;-56
2023/06/08 19:03:20;;;;;;;70.80;7.83;;;;;;;;;;5000213;28;20294;-56
2023/06/08 19:05:46;;;;;;;119.67;10.47;;;;;;;;;;5000890;28;20281;-56
2023/06/08 19:08:11;;;;;;;67.97;7.57;;;;;;;;;;5003273;28;20280;-56
2023/06/08 19:10:36;;;;;;;122.43;11.63;;;;;;;;;;4998341;28;20961;-56
2023/06/08 19:13:01;;;;;;;84.88;8.57;;;;;;;;;;5005751;28;20405;-56
2023/06/08 19:15:27;;;;;;;70.88;7.90;;;;;;;;;;5010326;28;20488;-58
2023/06/08 19:17:52;;;;;;;91.90;9.00;;;;;;;;;;5004851;28;20018;-56
2023/06/08 19:20:17;;;;;;;82.40;9.30;;;;;;;;;;5006656;28;20487;-55
2023/06/08 19:22:42;;;;;;;111.90;10.95;;;;;;;;;;5006628;28;20010;-57
2023/06/08 19:25:08;;;;;;;84.38;9.10;;;;;;;;;;5007376;28;20056;-54
2023/06/08 19:27:33;;;;;;;107.07;10.77;;;;;;;;;;5007117;28;20009;-57
2023/06/08 19:29:58;;;;;;;65.93;7.63;;;;;;;;;;5011249;28;20049;-56
2023/06/08 19:32:24;;;;;;;115.57;10.53;;;;;;;;;;5002585;28;20299;-58
2023/06/08 19:34:49;;;;;;;56.88;7.55;;;;;;;;;;5005623;28;20340;-54
2023/06/08 19:37:15;;;;;;;75.07;9.75;;;;;;;;;;5006398;28;20018;-55
2023/06/08 19:39:40;;;;;;;89.93;11.25;;;;;;;;;;5004549;28;20018;-55
2023/06/08 19:42:06;;;;;;;72.30;9.40;;;;;;;;;;5003727;28;20046;-57
2023/06/08 19:44:32;;;;;;;67.13;8.77;;;;;;;;;;5003712;28;20351;-56
2023/06/08 19:46:57;;;;;;;51.95;7.78;;;;;;;;;;5006932;28;20041;-56
2023/06/08 19:49:24;;;;;;;51.67;7.93;;;;;;;;;;5005971;28;20129;-55
2023/06/08 19:51:49;;;;;;;164.23;14.57;;;;;;;;;;5003081;28;20068;-56
2023/06/08 19:54:16;;;;;;;48.67;8.07;;;;;;;;;;5007351;28;20100;-57
2023/06/08 19:56:45;;;;;;;113.07;12.35;;;;;;;;;;5004249;28;20026;-58
2023/06/08 19:59:16;;;;;;;66.10;9.27;;;;;;;;;;5006390;28;20949;-56
2023/06/08 20:01:42;;;;;;;133.00;13.55;;;;;;;;;;5003103;28;20041;-56
2023/06/08 20:04:08;;;;;;;74.35;9.27;;;;;;;;;;5007080;28;20025;-59
2023/06/08 20:06:35;;;;;;;84.22;10.13;;;;;;;;;;5006262;28;20032;-58
2023/06/08 20:09:01;;;;;;;124.20;12.48;;;;;;;;;;5004280;28;20040;-57
2023/06/08 20:11:26;;;;;;;94.72;10.18;;;;;;;;;;5003947;28;20419;-57
2023/06/08 20:13:51;;;;;;;90.28;10.43;;;;;;;;;;5001824;28;20061;-57
2023/06/08 20:16:16;;;;;;;89.57;10.18;;;;;;;;;;5003599;28;20174;-58
2023/06/08 20:18:42;;;;;;;122.10;12.57;;;;;;;;;;5002591;28;20022;-56
2023/06/08 20:21:07;;;;;;;80.37;9.93;;;;;;;;;;5003500;28;20044;-57
2023/06/08 20:23:32;;;;;;;79.33;9.60;;;;;;;;;;5001424;28;20295;-56
2023/06/08 20:25:58;;;;;;;73.72;9.63;;;;;;;;;;5004724;28;20860;-58
2023/06/08 20:28:23;;;;;;;96.60;10.77;;;;;;;;;;5002956;28;20080;-57
2023/06/08 20:30:48;;;;;;;137.37;14.30;;;;;;;;;;5000939;28;20598;-56
2023/06/08 20:33:13;;;;;;;74.33;9.50;;;;;;;;;;5002374;28;20279;-58
2023/06/08 20:35:39;;;;;;;139.97;13.13;;;;;;;;;;5003244;28;20357;-58
2023/06/08 20:38:04;;;;;;;83.43;10.07;;;;;;;;;;5004666;28;20024;-58
2023/06/08 20:40:29;;;;;;;85.82;10.13;;;;;;;;;;5005254;28;20272;-56
2023/06/08 20:42:54;;;;;;;68.03;9.57;;;;;;;;;;5002150;28;20018;-55
2023/06/08 20:45:20;;;;;;;70.27;9.23;;;;;;;;;;5003630;28;20525;-55
2023/06/08 20:47:45;;;;;;;120.45;13.02;;;;;;;;;;5001579;28;20275;-59
2023/06/08 20:50:11;;;;;;;61.70;9.18;;;;;;;;;;5005293;28;20025;-57
2023/06/08 20:52:36;;;;;;;63.15;8.93;;;;;;;;;;5002185;28;20029;-57
2023/06/08 20:55:01;;;;;;;65.72;9.35;;;;;;;;;;5005028;28;20080;-57
2023/06/08 20:57:26;;;;;;;61.17;9.17;;;;;;;;;;5005573;28;20022;-57
2023/06/08 20:59:52;;;;;;;117.20;13.10;;;;;;;;;;5001931;28;20279;-56
2023/06/08 21:02:17;;;;;;;60.73;8.90;;;;;;;;;;5001211;28;20587;-56
2023/06/08 21:04:44;;;;;;;108.53;12.53;;;;;;;;;;5005154;28;20383;-56
2023/06/08 21:07:11;;;;;;;70.53;9.48;;;;;;;;;;5003587;28;20701;-57
2023/06/08 21:09:36;;;;;;;59.35;8.88;;;;;;;;;;5004465;28;20675;-56
2023/06/08 21:12:02;;;;;;;81.95;10.43;;;;;;;;;;5002166;28;20132;-56
2023/06/08 21:14:27;;;;;;;69.85;9.38;;;;;;;;;;5004499;28;20043;-56
2023/06/08 21:16:53;;;;;;;119.43;12.20;;;;;;;;;;5001038;28;20029;-55
2023/06/08 21:19:18;;;;;;;69.30;9.40;;;;;;;;;;5002470;28;20803;-56
2023/06/08 21:21:44;;;;;;;124.95;13.02;;;;;;;;;;5001194;28;20033;-59
2023/06/08 21:24:09;;;;;;;63.67;9.80;;;;;;;;;;5003440;28;20033;-56
2023/06/08 21:26:35;;;;;;;83.28;9.95;;;;;;;;;;5003130;28;21063;-56
2023/06/08 21:29:01;;;;;;;81.05;10.50;;;;;;;;;;5001506;28;20018;-54
2023/06/08 21:31:26;;;;;;;98.38;11.45;;;;;;;;;;5003254;28;20049;-57
2023/06/08 21:33:51;;;;;;;149.10;14.32;;;;;;;;;;4996986;28;20021;-56
2023/06/08 21:36:17;;;;;;;78.82;9.88;;;;;;;;;;5002829;28;20048;-58
2023/06/08 21:38:42;;;;;;;118.43;12.85;;;;;;;;;;5002269;28;20022;-56
2023/06/08 21:41:08;;;;;;;90.07;10.95;;;;;;;;;;5001554;28;20037;-58
2023/06/08 21:43:33;;;;;;;89.00;11.43;;;;;;;;;;5002067;28;20026;-57
2023/06/08 21:45:58;;;;;;;100.72;11.40;;;;;;;;;;5002048;28;20040;-56
2023/06/08 21:48:24;;;;;;;97.03;10.68;;;;;;;;;;5002906;28;20037;-56
2023/06/08 21:50:49;;;;;;;120.80;13.02;;;;;;;;;;5001613;28;20047;-56
2023/06/08 21:53:14;;;;;;;87.55;10.32;;;;;;;;;;4999986;28;20483;-56
2023/06/08 21:55:39;;;;;;;79.67;10.53;;;;;;;;;;5002553;28;20048;-57
2023/06/08 21:58:05;;;;;;;123.17;12.63;;;;;;;;;;5003229;28;20344;-59
2023/06/08 22:00:30;;;;;;;93.37;10.90;;;;;;;;;;5002487;28;20884;-57
2023/06/08 22:02:55;;;;;;;137.90;13.90;;;;;;;;;;4999354;28;20617;-59
2023/06/08 22:05:21;;;;;;;83.50;10.05;;;;;;;;;;4999911;28;20064;-59
2023/06/08 22:07:47;;;;;;;139.02;14.40;;;;;;;;;;5001657;28;20225;-58
2023/06/08 22:10:12;;;;;;;88.90;10.77;;;;;;;;;;5003980;28;20112;-60
2023/06/08 22:12:39;;;;;;;87.72;11.07;;;;;;;;;;5001781;28;20365;-57
2023/06/08 22:15:05;;;;;;;77.63;10.02;;;;;;;;;;5003180;28;20134;-57
2023/06/08 22:17:30;;;;;;;80.30;10.43;;;;;;;;;;5004823;28;20108;-58
2023/06/08 22:19:55;;;;;;;133.53;13.33;;;;;;;;;;5002725;28;20788;-57
2023/06/08 22:22:24;;;;;;;80.20;10.35;;;;;;;;;;5001034;28;20914;-58
2023/06/08 22:24:50;;;;;;;125.07;14.10;;;;;;;;;;5001814;28;20029;-56
2023/06/08 22:27:15;;;;;;;63.85;8.90;;;;;;;;;;5003084;28;20030;-56
2023/06/08 22:29:40;;;;;;;55.93;8.77;;;;;;;;;;4999041;28;20024;-55
2023/06/08 22:32:06;;;;;;;117.30;12.07;;;;;;;;;;4997952;28;20377;-56
2023/06/08 22:34:31;;;;;;;70.03;9.93;;;;;;;;;;5001504;28;20300;-58
2023/06/08 22:36:56;;;;;;;140.65;14.10;;;;;;;;;;5000019;28;20428;-55
2023/06/08 22:39:21;;;;;;;89.80;11.17;;;;;;;;;;4997340;28;20021;-55
2023/06/08 22:41:47;;;;;;;160.23;15.00;;;;;;;;;;4996814;28;20288;-58
2023/06/08 22:44:13;;;;;;;94.68;10.75;;;;;;;;;;4998265;28;20264;-56
2023/06/08 22:46:39;;;;;;;84.72;10.77;;;;;;;;;;4997915;28;20145;-56
2023/06/08 22:49:04;;;;;;;89.35;10.73;;;;;;;;;;4997884;28;20029;-57
2023/06/08 22:51:29;;;;;;;95.70;11.37;;;;;;;;;;4999448;28;20075;-58
2023/06/08 22:53:55;;;;;;;123.23;13.37;;;;;;;;;;4997719;28;20777;-55
